Time;durP1;ratioP1;P1;durP2;ratioP2;P2;SDS_P1;SDS_P2;PMS_P1;PMS_P2;Temp;Humidity;BMP_temperature;BMP_pressure;BME280_temperature;BME280_humidity;BME280_pressure;Samples;Min_cycle;Max_cycle;Signal;HPM_P1;HPM_P2
2023/04/13 00:00:45;;;;;;;38.30;12.30;;;3.90;99.90;;;;;;5027094;28;20037;-76
2023/04/13 00:03:11;;;;;;;35.13;12.63;;;3.90;99.90;;;;;;5029466;28;20017;-76
2023/04/13 00:05:37;;;;;;;40.45;13.38;;;3.90;99.90;;;;;;5028988;28;20057;-76
2023/04/13 00:08:03;;;;;;;35.85;13.23;;;3.90;99.90;;;;;;5022338;28;20136;-76
2023/04/13 00:10:30;;;;;;;33.97;13.32;;;3.90;99.90;;;;;;5027400;28;20132;-79
2023/04/13 00:12:57;;;;;;;42.03;13.80;;;3.80;99.90;;;;;;5028257;28;20029;-77
2023/04/13 00:15:22;;;;;;;34.80;12.98;;;3.80;99.90;;;;;;5025432;28;20136;-77
2023/04/13 00:17:48;;;;;;;41.33;13.38;;;3.70;99.90;;;;;;5025773;28;20029;-77
2023/04/13 00:20:14;;;;;;;36.22;13.20;;;3.80;99.90;;;;;;5028969;28;20029;-78
2023/04/13 00:22:41;;;;;;;37.90;14.07;;;3.70;99.90;;;;;;5027110;28;20118;-79
2023/04/13 00:25:08;;;;;;;54.88;14.40;;;3.60;99.90;;;;;;5028551;28;20053;-77
2023/04/13 00:27:34;;;;;;;48.50;16.42;;;3.70;99.90;;;;;;5019081;28;20462;-76
2023/04/13 00:29:59;;;;;;;49.17;13.80;;;3.60;99.90;;;;;;5026549;28;20101;-77
2023/04/13 00:32:25;;;;;;;53.17;15.10;;;3.60;99.90;;;;;;5029958;28;20426;-77
2023/04/13 00:34:51;;;;;;;55.15;15.60;;;3.60;99.90;;;;;;5029107;28;20145;-77
2023/04/13 00:37:17;;;;;;;43.00;14.23;;;3.60;99.90;;;;;;5028190;28;20143;-77
2023/04/13 00:39:46;;;;;;;50.67;15.57;;;3.60;99.90;;;;;;5018596;28;20053;-78
2023/04/13 00:42:12;;;;;;;42.20;14.13;;;3.60;99.90;;;;;;5027137;28;20029;-77
2023/04/13 00:44:38;;;;;;;46.97;13.77;;;3.60;99.90;;;;;;5024875;28;20091;-76
2023/04/13 00:47:05;;;;;;;53.38;14.05;;;3.60;99.90;;;;;;5028249;28;20023;-77
2023/04/13 00:49:33;;;;;;;47.13;14.05;;;3.60;99.90;;;;;;5027161;28;20126;-81
2023/04/13 00:52:00;;;;;;;46.08;14.48;;;3.60;99.90;;;;;;5022715;28;20056;-78
2023/04/13 00:54:28;;;;;;;47.50;14.48;;;3.60;99.90;;;;;;5025502;28;20028;-76
2023/04/13 00:56:54;;;;;;;46.92;14.65;;;3.70;99.90;;;;;;5027681;28;20079;-77
2023/04/13 00:59:19;;;;;;;61.67;15.02;;;3.70;99.90;;;;;;5024489;28;20037;-77
2023/04/13 01:01:49;;;;;;;47.00;13.77;;;3.70;99.90;;;;;;5019855;28;20088;-76
2023/04/13 01:04:18;;;;;;;51.20;15.30;;;3.70;99.90;;;;;;5020809;28;20033;-76
2023/04/13 01:06:51;;;;;;;49.35;15.82;;;3.60;99.90;;;;;;5022161;28;20077;-77
2023/04/13 01:09:29;;;;;;;52.88;14.82;;;3.60;99.90;;;;;;5021736;28;20473;-79
2023/04/13 01:12:01;;;;;;;56.05;14.50;;;3.60;99.90;;;;;;5028929;28;20391;-78
2023/04/13 01:14:37;;;;;;;50.35;13.90;;;3.60;99.90;;;;;;5027447;28;20069;-76
2023/04/13 01:17:09;;;;;;;56.78;15.18;;;3.60;99.90;;;;;;5026672;28;20021;-76
2023/04/13 01:19:39;;;;;;;55.22;14.48;;;3.50;99.90;;;;;;5028247;28;20097;-76
2023/04/13 01:22:06;;;;;;;56.50;14.87;;;3.50;99.90;;;;;;5016687;28;20057;-76
2023/04/13 01:24:41;;;;;;;54.25;14.63;;;3.40;99.90;;;;;;5026872;28;20053;-77
2023/04/13 01:27:12;;;;;;;47.35;14.45;;;3.40;99.90;;;;;;5029091;28;20472;-76
2023/04/13 01:29:38;;;;;;;;;;;3.40;99.90;;;;;;5028879;28;20356;-78
2023/04/13 01:32:05;;;;;;;48.08;12.32;;;3.30;99.90;;;;;;5028253;28;19928;-76
2023/04/13 01:34:31;;;;;;;48.70;13.30;;;3.30;99.90;;;;;;5028006;28;20029;-78
2023/04/13 01:36:57;;;;;;;56.83;14.23;;;3.30;99.90;;;;;;5022915;28;20171;-76
2023/04/13 01:39:25;;;;;;;61.63;14.68;;;3.30;99.90;;;;;;5027791;28;20470;-76
2023/04/13 01:41:51;;;;;;;47.85;14.20;;;3.20;99.90;;;;;;5023994;28;20040;-76
2023/04/13 01:44:17;;;;;;;61.72;15.18;;;3.20;99.90;;;;;;5019183;28;20029;-76
2023/04/13 01:46:46;;;;;;;51.97;14.73;;;3.10;99.90;;;;;;5024409;28;20034;-78
2023/04/13 01:49:15;;;;;;;60.92;16.05;;;3.20;99.90;;;;;;5021004;28;20120;-77
2023/04/13 01:51:42;;;;;;;62.55;15.50;;;3.20;99.90;;;;;;5013303;28;20092;-76
2023/04/13 01:54:19;;;;;;;59.63;16.27;;;3.20;99.90;;;;;;5027384;28;20426;-76
2023/04/13 01:56:45;;;;;;;57.35;15.05;;;3.10;99.90;;;;;;5012376;28;20363;-76
2023/04/13 01:59:11;;;;;;;54.40;15.85;;;3.10;99.90;;;;;;5023991;28;20029;-75
2023/04/13 02:01:37;;;;;;;61.42;15.82;;;3.10;99.90;;;;;;5020132;28;20103;-75
2023/04/13 02:04:04;;;;;;;49.65;16.50;;;3.10;99.90;;;;;;5025742;28;20033;-79
2023/04/13 02:06:29;;;;;;;57.63;15.52;;;3.10;99.90;;;;;;5020985;28;20488;-76
2023/04/13 02:08:55;;;;;;;64.35;17.42;;;3.00;99.90;;;;;;5027917;28;20115;-76
2023/04/13 02:11:20;;;;;;;68.72;17.48;;;2.90;99.90;;;;;;5025333;28;20112;-76
2023/04/13 02:13:46;;;;;;;59.95;16.10;;;2.90;99.90;;;;;;5026356;28;20343;-76
2023/04/13 02:16:12;;;;;;;55.78;15.98;;;2.90;99.90;;;;;;5025748;28;20040;-78
2023/04/13 02:18:37;;;;;;;60.92;14.98;;;2.90;99.90;;;;;;5027271;28;20116;-76
2023/04/13 02:21:08;;;;;;;62.72;15.63;;;2.80;99.90;;;;;;5022516;28;20065;-79
2023/04/13 02:23:39;;;;;;;58.40;16.50;;;2.90;99.90;;;;;;5022377;28;20104;-79
2023/04/13 02:26:08;;;;;;;;;;;2.80;99.90;;;;;;5026888;28;20036;-76
2023/04/13 02:28:34;;;;;;;51.60;13.45;;;2.90;99.90;;;;;;5022254;28;19905;-78
2023/04/13 02:31:02;;;;;;;58.05;15.05;;;2.80;99.90;;;;;;5026095;28;20040;-76
2023/04/13 02:33:30;;;;;;;58.10;15.20;;;2.80;99.90;;;;;;5027083;28;20041;-77
2023/04/13 02:36:01;;;;;;;55.55;15.05;;;2.90;99.90;;;;;;5025775;28;20025;-76
2023/04/13 02:38:27;;;;;;;48.70;14.35;;;2.90;99.90;;;;;;5024928;28;20048;-78
2023/04/13 02:40:54;;;;;;;49.75;14.52;;;2.90;99.90;;;;;;5016368;28;20052;-76
2023/04/13 02:43:20;;;;;;;53.20;14.48;;;2.90;99.90;;;;;;5023714;28;20042;-76
2023/04/13 02:45:45;;;;;;;57.83;15.38;;;2.90;99.90;;;;;;5021247;28;20043;-76
2023/04/13 02:48:11;;;;;;;53.80;15.20;;;2.90;99.90;;;;;;5025425;28;20029;-76
2023/04/13 02:50:36;;;;;;;49.83;13.98;;;2.80;99.90;;;;;;5024546;28;20057;-76
2023/04/13 02:53:02;;;;;;;61.42;15.43;;;2.80;99.90;;;;;;5023920;28;20048;-76
2023/04/13 02:55:28;;;;;;;57.50;14.55;;;2.90;99.90;;;;;;5024079;28;20039;-80
2023/04/13 02:57:53;;;;;;;60.17;15.30;;;2.90;99.90;;;;;;5022912;28;20081;-75
2023/04/13 03:00:20;;;;;;;51.00;13.77;;;2.90;99.90;;;;;;5026323;28;20033;-75
2023/04/13 03:02:46;;;;;;;50.90;15.32;;;2.90;99.90;;;;;;5022283;28;20038;-80
2023/04/13 03:05:12;;;;;;;52.92;14.40;;;2.90;99.90;;;;;;5024700;28;20033;-76
2023/04/13 03:07:38;;;;;;;63.05;15.30;;;2.90;99.90;;;;;;5015796;28;20327;-76
2023/04/13 03:10:04;;;;;;;65.55;15.38;;;2.90;99.90;;;;;;5025835;28;20048;-76
2023/04/13 03:12:31;;;;;;;52.63;15.40;;;2.90;99.90;;;;;;5019282;28;20021;-80
2023/04/13 03:14:56;;;;;;;56.13;14.82;;;2.90;99.90;;;;;;5137433;23;20088;-77
2023/04/13 03:17:22;;;;;;;64.00;16.08;;;2.90;99.90;;;;;;5025412;28;20080;-78
2023/04/13 03:19:48;;;;;;;59.75;16.40;;;2.90;99.90;;;;;;5025605;28;20474;-78
2023/04/13 03:22:14;;;;;;;65.75;16.35;;;2.90;99.90;;;;;;5024950;28;20121;-77
2023/04/13 03:24:41;;;;;;;70.97;17.52;;;3.00;99.90;;;;;;5021129;28;20076;-77
2023/04/13 03:27:06;;;;;;;69.10;16.13;;;3.00;99.90;;;;;;5031979;28;20438;-79
2023/04/13 03:29:32;;;;;;;78.05;17.90;;;2.90;99.90;;;;;;5024709;28;20026;-79
2023/04/13 03:31:57;;;;;;;76.72;17.42;;;3.00;99.90;;;;;;5031385;28;20021;-77
2023/04/13 03:34:23;;;;;;;75.22;17.33;;;2.90;99.90;;;;;;5026380;28;20112;-78
2023/04/13 03:36:48;;;;;;;86.18;18.38;;;3.00;99.90;;;;;;5026237;28;20449;-81
2023/04/13 03:39:14;;;;;;;74.15;18.05;;;3.00;99.90;;;;;;5026042;28;20084;-79
2023/04/13 03:41:40;;;;;;;76.57;18.48;;;3.00;99.90;;;;;;5026039;28;20049;-77
2023/04/13 03:44:07;;;;;;;75.22;18.27;;;3.00;99.90;;;;;;5027192;28;20037;-77
2023/04/13 03:46:34;;;;;;;85.68;19.55;;;3.00;99.90;;;;;;5021045;28;20031;-78
2023/04/13 03:48:59;;;;;;;88.93;19.48;;;3.00;99.90;;;;;;5027201;28;20081;-77
2023/04/13 03:51:26;;;;;;;78.35;19.30;;;3.00;99.90;;;;;;5023324;28;20410;-77
2023/04/13 03:53:52;;;;;;;87.97;20.13;;;3.00;99.90;;;;;;5033368;28;20025;-77
2023/04/13 03:56:17;;;;;;;94.53;21.23;;;3.10;99.90;;;;;;5019599;28;20106;-77
2023/04/13 03:58:43;;;;;;;83.38;18.10;;;3.00;99.90;;;;;;5023116;28;20087;-77
2023/04/13 04:01:09;;;;;;;74.65;17.45;;;3.00;99.90;;;;;;5020928;28;20033;-77
2023/04/13 04:03:34;;;;;;;95.95;22.13;;;3.00;99.90;;;;;;5020441;28;20033;-77
2023/04/13 04:06:00;;;;;;;85.13;19.40;;;3.10;99.90;;;;;;5005284;28;20040;-77
2023/04/13 04:08:25;;;;;;;97.93;22.05;;;3.10;99.90;;;;;;5013474;28;20049;-74
2023/04/13 04:10:51;;;;;;;88.35;20.58;;;3.10;99.90;;;;;;5026017;28;20036;-78
2023/04/13 04:13:16;;;;;;;91.03;20.95;;;3.10;99.90;;;;;;5011690;28;20023;-76
2023/04/13 04:15:42;;;;;;;84.95;19.80;;;3.10;99.90;;;;;;5023058;28;20184;-75
2023/04/13 04:18:07;;;;;;;93.78;20.83;;;3.20;99.90;;;;;;5025252;28;20450;-74
2023/04/13 04:20:33;;;;;;;88.78;21.13;;;3.10;99.90;;;;;;5002774;28;20053;-75
2023/04/13 04:22:59;;;;;;;93.15;21.27;;;3.20;99.90;;;;;;5018880;28;20026;-77
2023/04/13 04:25:26;;;;;;;98.55;19.92;;;3.20;99.90;;;;;;5019460;28;20106;-76
2023/04/13 04:27:56;;;;;;;86.88;20.23;;;3.20;99.90;;;;;;5024410;28;20017;-77
2023/04/13 04:30:28;;;;;;;89.00;20.07;;;3.20;99.90;;;;;;5026747;28;20117;-78
2023/04/13 04:32:54;;;;;;;80.78;18.77;;;3.20;99.90;;;;;;5024188;28;20068;-76
2023/04/13 04:35:20;;;;;;;86.43;19.85;;;3.30;99.90;;;;;;5028446;28;20088;-77
2023/04/13 04:37:48;;;;;;;102.95;21.00;;;3.30;99.90;;;;;;5021634;28;20025;-77
2023/04/13 04:40:14;;;;;;;84.13;20.80;;;3.30;99.90;;;;;;5021510;28;20124;-76
2023/04/13 04:42:41;;;;;;;102.75;20.77;;;3.40;99.90;;;;;;5020600;28;20532;-77
2023/04/13 04:45:07;;;;;;;85.03;19.17;;;3.50;99.90;;;;;;5024078;28;20453;-77
2023/04/13 04:47:42;;;;;;;97.60;20.55;;;3.60;99.90;;;;;;5021707;28;20385;-77
2023/04/13 04:50:13;;;;;;;100.95;21.27;;;3.70;99.90;;;;;;5027463;28;20032;-76
2023/04/13 04:52:39;;;;;;;;;;;3.70;99.90;;;;;;5021495;28;20552;-78
2023/04/13 04:55:05;;;;;;;85.68;18.10;;;3.80;99.90;;;;;;5025695;28;19989;-77
2023/04/13 04:57:32;;;;;;;104.05;20.77;;;3.80;99.90;;;;;;5025748;28;20040;-77
2023/04/13 04:59:58;;;;;;;78.78;18.48;;;3.80;99.90;;;;;;5027475;28;20124;-78
2023/04/13 05:02:24;;;;;;;90.45;20.52;;;3.90;99.90;;;;;;5027275;28;20124;-77
2023/04/13 05:04:49;;;;;;;93.53;20.50;;;3.90;99.90;;;;;;5025569;28;20128;-78
2023/04/13 05:07:16;;;;;;;82.90;19.60;;;4.00;99.90;;;;;;5015537;28;20098;-76
2023/04/13 05:09:43;;;;;;;85.60;19.27;;;4.00;99.90;;;;;;5019738;28;20037;-76
2023/04/13 05:12:08;;;;;;;90.25;20.58;;;4.10;99.90;;;;;;5027420;28;20021;-76
2023/04/13 05:14:34;;;;;;;83.85;19.45;;;4.10;99.80;;;;;;5027453;28;20030;-75
2023/04/13 05:17:00;;;;;;;75.95;18.25;;;4.10;99.80;;;;;;5026673;28;20041;-73
2023/04/13 05:19:26;;;;;;;77.15;20.00;;;4.20;99.70;;;;;;5027547;28;20051;-73
2023/04/13 05:21:52;;;;;;;71.90;18.08;;;4.20;99.70;;;;;;5019482;28;20378;-72
2023/04/13 05:24:17;;;;;;;77.72;18.15;;;4.20;99.60;;;;;;5025892;28;20037;-73
2023/04/13 05:26:43;;;;;;;84.93;19.15;;;4.30;99.60;;;;;;5028578;28;20025;-72
2023/04/13 05:29:08;;;;;;;67.38;16.77;;;4.30;99.50;;;;;;5029127;28;20385;-74
2023/04/13 05:31:34;;;;;;;69.85;18.23;;;4.40;99.50;;;;;;5027200;28;20082;-75
2023/04/13 05:34:00;;;;;;;63.13;18.08;;;4.30;99.50;;;;;;5029213;28;20393;-75
2023/04/13 05:36:27;;;;;;;69.70;16.42;;;4.40;99.50;;;;;;5027323;28;20109;-75
2023/04/13 05:38:55;;;;;;;58.05;16.85;;;4.40;99.60;;;;;;5029212;28;20029;-75
2023/04/13 05:41:21;;;;;;;61.95;16.63;;;4.50;99.50;;;;;;5020091;28;20041;-76
2023/04/13 05:43:48;;;;;;;67.65;17.45;;;4.50;99.60;;;;;;5029054;28;20052;-75
2023/04/13 05:46:14;;;;;;;61.75;15.68;;;4.60;99.60;;;;;;5027414;28;20027;-74
2023/04/13 05:48:42;;;;;;;55.08;15.52;;;4.60;99.50;;;;;;5004805;28;20021;-74
2023/04/13 05:51:07;;;;;;;49.45;16.17;;;4.60;99.50;;;;;;5021883;28;20237;-76
2023/04/13 05:53:33;;;;;;;47.90;15.32;;;4.70;99.40;;;;;;5040813;28;20026;-73
2023/04/13 05:55:58;;;;;;;49.45;16.15;;;4.70;99.20;;;;;;5024207;28;20029;-75
2023/04/13 05:58:25;;;;;;;41.45;14.00;;;4.80;99.30;;;;;;5028647;28;20079;-75
2023/04/13 06:00:51;;;;;;;38.67;12.73;;;4.80;99.20;;;;;;5031725;28;20446;-75
2023/04/13 06:03:19;;;;;;;45.17;13.20;;;4.90;99.00;;;;;;5032823;28;20045;-75
2023/04/13 06:05:45;;;;;;;46.88;13.50;;;4.90;98.90;;;;;;5018998;28;20112;-75
2023/04/13 06:08:12;;;;;;;40.40;12.88;;;5.00;98.90;;;;;;5000289;28;20065;-74
2023/04/13 06:10:38;;;;;;;40.58;13.05;;;5.00;98.80;;;;;;5037816;28;20109;-74
2023/04/13 06:13:03;;;;;;;40.08;12.77;;;5.10;98.50;;;;;;5029760;28;20036;-74
2023/04/13 06:15:30;;;;;;;42.10;12.20;;;5.10;98.10;;;;;;5036359;28;20045;-75
2023/04/13 06:17:55;;;;;;;35.58;10.52;;;5.20;97.90;;;;;;5033145;28;20061;-75
2023/04/13 06:20:21;;;;;;;33.58;10.40;;;5.30;97.90;;;;;;5021952;28;20061;-76
2023/04/13 06:22:46;;;;;;;34.72;10.48;;;5.30;97.30;;;;;;5015217;28;20124;-75
2023/04/13 06:25:13;;;;;;;30.27;9.73;;;5.40;97.40;;;;;;5030452;28;20067;-75
2023/04/13 06:27:39;;;;;;;30.08;9.98;;;5.40;97.50;;;;;;5025552;28;20025;-75
2023/04/13 06:30:05;;;;;;;22.33;8.90;;;5.50;97.20;;;;;;5007290;28;20128;-74
2023/04/13 06:32:31;;;;;;;20.40;8.35;;;5.60;97.00;;;;;;5027454;28;20611;-74
2023/04/13 06:34:57;;;;;;;23.92;7.90;;;5.60;97.00;;;;;;5027743;28;20108;-75
2023/04/13 06:37:23;;;;;;;22.75;7.45;;;5.70;96.70;;;;;;5015578;28;20370;-75
2023/04/13 06:39:48;;;;;;;20.40;6.43;;;5.80;96.60;;;;;;5021669;28;22370;-75
2023/04/13 06:42:14;;;;;;;16.00;6.65;;;5.80;96.10;;;;;;5023472;28;20026;-75
2023/04/13 06:44:40;;;;;;;14.00;5.50;;;5.90;96.50;;;;;;5027649;28;20022;-76
2023/04/13 06:47:05;;;;;;;15.52;5.75;;;6.10;96.10;;;;;;5027383;28;20017;-75
2023/04/13 06:49:34;;;;;;;14.25;5.65;;;6.10;95.30;;;;;;5025961;28;20422;-75
2023/04/13 06:51:59;;;;;;;18.52;4.93;;;6.20;95.50;;;;;;5026496;28;20032;-75
2023/04/13 06:54:25;;;;;;;11.65;5.38;;;6.30;95.20;;;;;;5024645;28;20335;-76
2023/04/13 06:56:50;;;;;;;10.15;4.40;;;6.40;95.50;;;;;;5026205;28;20080;-75
2023/04/13 06:59:16;;;;;;;6.93;4.53;;;6.50;95.70;;;;;;5029757;28;20036;-75
2023/04/13 07:01:41;;;;;;;9.27;3.80;;;6.50;95.10;;;;;;5030389;28;20026;-75
2023/04/13 07:04:07;;;;;;;8.25;3.65;;;6.60;94.90;;;;;;5021207;28;20470;-75
2023/04/13 07:06:33;;;;;;;9.50;3.58;;;6.70;94.40;;;;;;5019468;28;20466;-74
2023/04/13 07:08:59;;;;;;;6.10;3.03;;;6.80;94.60;;;;;;5021022;28;20040;-75
2023/04/13 07:11:25;;;;;;;7.25;2.92;;;6.90;94.40;;;;;;5022210;28;20025;-75
2023/04/13 07:13:51;;;;;;;4.70;2.25;;;7.00;93.40;;;;;;5025758;28;20119;-75
2023/04/13 07:16:16;;;;;;;6.50;2.35;;;7.00;93.70;;;;;;5032373;28;20091;-76
2023/04/13 07:18:42;;;;;;;5.60;2.30;;;7.00;93.50;;;;;;5027653;28;20485;-75
2023/04/13 07:21:07;;;;;;;5.03;1.98;;;7.00;93.70;;;;;;5034433;28;20500;-76
2023/04/13 07:23:33;;;;;;;5.15;2.05;;;7.00;93.50;;;;;;5025160;28;20037;-76
2023/04/13 07:25:59;;;;;;;6.68;1.77;;;7.10;92.80;;;;;;5031059;28;20143;-76
2023/04/13 07:28:24;;;;;;;6.45;2.10;;;7.20;93.00;;;;;;5025895;28;20029;-75
2023/04/13 07:30:51;;;;;;;5.30;2.03;;;7.20;93.10;;;;;;5009113;28;20112;-75
2023/04/13 07:33:16;;;;;;;3.70;1.60;;;7.30;92.30;;;;;;5027731;28;20219;-76
2023/04/13 07:35:41;;;;;;;3.65;1.30;;;7.30;92.60;;;;;;5022678;28;20161;-75
2023/04/13 07:38:07;;;;;;;3.28;1.40;;;7.30;91.70;;;;;;5024719;28;20129;-75
2023/04/13 07:40:34;;;;;;;5.22;1.50;;;7.30;92.00;;;;;;5026288;28;20376;-76
2023/04/13 07:43:00;;;;;;;4.32;1.63;;;7.40;91.80;;;;;;5024014;28;20033;-76
2023/04/13 07:45:29;;;;;;;3.72;1.60;;;7.30;91.50;;;;;;5026759;28;20114;-75
2023/04/13 07:47:55;;;;;;;4.18;1.50;;;7.40;92.00;;;;;;5025160;28;20365;-75
2023/04/13 07:50:20;;;;;;;2.25;1.40;;;7.50;92.10;;;;;;5034934;28;20026;-76
2023/04/13 07:52:46;;;;;;;2.53;1.17;;;7.70;91.90;;;;;;5025875;28;20200;-76
2023/04/13 07:55:11;;;;;;;3.10;1.50;;;7.70;90.10;;;;;;5025212;28;20477;-76
2023/04/13 07:57:37;;;;;;;2.90;1.10;;;7.90;91.60;;;;;;5025422;28;20126;-75
2023/04/13 08:00:04;;;;;;;2.72;1.10;;;7.90;90.30;;;;;;5027103;28;20418;-75
2023/04/13 08:02:30;;;;;;;3.50;1.17;;;7.80;90.50;;;;;;5017514;28;20022;-75
2023/04/13 08:04:56;;;;;;;6.15;1.40;;;7.80;90.40;;;;;;5024868;28;20041;-75
2023/04/13 08:07:21;;;;;;;3.10;1.05;;;7.80;90.30;;;;;;5025262;28;20473;-75
2023/04/13 08:09:48;;;;;;;2.38;1.15;;;7.90;90.20;;;;;;5028953;28;20033;-76
2023/04/13 08:12:14;;;;;;;2.78;1.00;;;8.00;90.20;;;;;;5029097;28;20017;-76
2023/04/13 08:14:39;;;;;;;3.97;1.10;;;7.80;89.10;;;;;;5030532;28;20493;-75
2023/04/13 08:17:05;;;;;;;4.22;1.00;;;7.90;89.80;;;;;;5030471;28;20073;-75
2023/04/13 08:19:31;;;;;;;2.85;0.90;;;8.10;89.80;;;;;;5039539;28;20403;-75
2023/04/13 08:21:57;;;;;;;1.92;1.02;;;8.20;89.60;;;;;;5040233;28;20304;-75
2023/04/13 08:24:24;;;;;;;3.05;1.27;;;8.20;89.10;;;;;;5028289;28;20429;-76
2023/04/13 08:26:51;;;;;;;2.92;1.48;;;8.20;88.10;;;;;;5029189;28;20032;-75
2023/04/13 08:29:16;;;;;;;9.95;4.95;;;8.40;89.50;;;;;;5030728;28;20112;-75
2023/04/13 08:31:42;;;;;;;5.22;2.28;;;8.80;88.40;;;;;;5025685;28;20187;-75
2023/04/13 08:34:09;;;;;;;3.83;1.20;;;9.00;87.80;;;;;;5029867;28;20094;-75
2023/04/13 08:36:36;;;;;;;2.13;1.60;;;9.00;87.00;;;;;;5028134;28;20078;-75
2023/04/13 08:39:01;;;;;;;3.83;1.20;;;9.40;87.30;;;;;;5029145;28;20032;-75
2023/04/13 08:41:28;;;;;;;2.63;1.00;;;9.70;85.70;;;;;;5030291;28;20021;-75
2023/04/13 08:43:54;;;;;;;1.17;0.80;;;9.70;85.90;;;;;;5027273;28;20055;-75
2023/04/13 08:46:21;;;;;;;3.25;1.30;;;9.80;86.10;;;;;;5027463;28;20470;-75
2023/04/13 08:48:47;;;;;;;2.65;0.95;;;9.70;85.40;;;;;;5029602;28;20047;-75
2023/04/13 08:51:13;;;;;;;4.38;1.20;;;10.00;86.40;;;;;;5027558;28;20053;-76
2023/04/13 08:53:39;;;;;;;3.05;1.50;;;9.90;85.60;;;;;;5028518;28;20033;-75
2023/04/13 08:56:10;;;;;;;3.83;1.20;;;9.90;85.00;;;;;;5026143;28;20511;-75
2023/04/13 08:58:41;;;;;;;1.85;1.05;;;9.70;83.80;;;;;;5034949;28;20123;-75
2023/04/13 09:01:07;;;;;;;2.40;1.40;;;9.60;83.00;;;;;;5027995;28;20043;-75
2023/04/13 09:03:40;;;;;;;4.90;1.92;;;9.60;83.90;;;;;;5024772;28;20431;-75
2023/04/13 09:06:09;;;;;;;4.47;2.30;;;9.50;82.50;;;;;;5008150;28;20260;-76
2023/04/13 09:08:35;;;;;;;3.45;1.13;;;9.80;84.40;;;;;;5025425;28;20021;-76
2023/04/13 09:11:02;;;;;;;2.42;1.38;;;9.80;82.10;;;;;;5027150;28;20010;-75
2023/04/13 09:13:28;;;;;;;1.88;1.02;;;9.60;81.50;;;;;;5026182;28;20036;-75
2023/04/13 09:15:53;;;;;;;3.47;1.40;;;9.60;82.10;;;;;;5028868;28;20065;-75
2023/04/13 09:18:19;;;;;;;2.00;1.05;;;10.30;81.40;;;;;;5033655;28;20049;-75
2023/04/13 09:20:58;;;;;;;1.80;1.02;;;10.50;80.80;;;;;;5031465;28;20017;-75
2023/04/13 09:23:24;;;;;;;3.63;1.40;;;10.80;80.90;;;;;;5028854;28;20026;-75
2023/04/13 09:26:06;;;;;;;3.08;1.20;;;10.70;80.20;;;;;;5033476;28;20021;-76
2023/04/13 09:28:31;;;;;;;3.15;1.25;;;10.70;78.00;;;;;;5010127;28;20135;-75
2023/04/13 09:31:04;;;;;;;1.67;1.08;;;11.20;78.10;;;;;;5031519;28;20136;-75
2023/04/13 09:33:34;;;;;;;2.45;1.20;;;11.10;77.40;;;;;;5029659;28;20431;-75
2023/04/13 09:36:12;;;;;;;2.47;1.30;;;11.40;77.30;;;;;;5024416;28;20025;-75
2023/04/13 09:38:37;;;;;;;5.00;2.38;;;11.10;77.50;;;;;;5023939;28;20437;-76
2023/04/13 09:41:03;;;;;;;4.70;3.60;;;10.80;76.80;;;;;;5024816;28;20091;-76
2023/04/13 09:43:36;;;;;;;3.65;1.70;;;10.50;78.60;;;;;;5028810;28;20033;-76
2023/04/13 09:46:02;;;;;;;4.05;1.65;;;10.10;78.50;;;;;;5028741;28;20495;-76
2023/04/13 09:48:28;;;;;;;3.03;1.20;;;9.70;77.90;;;;;;5027374;28;20196;-74
2023/04/13 09:51:01;;;;;;;2.63;1.45;;;9.80;78.00;;;;;;5029517;28;20503;-75
2023/04/13 09:53:37;;;;;;;3.67;1.85;;;10.50;78.50;;;;;;5023983;28;20036;-74
2023/04/13 09:56:03;;;;;;;2.90;1.45;;;10.50;77.40;;;;;;5037681;28;20028;-74
2023/04/13 09:58:30;;;;;;;3.03;1.13;;;10.60;75.70;;;;;;5025625;28;20336;-76
2023/04/13 10:00:56;;;;;;;3.20;1.30;;;10.40;76.10;;;;;;5026899;28;20102;-75
2023/04/13 10:03:22;;;;;;;3.92;1.13;;;10.50;76.70;;;;;;5024600;28;20040;-76
2023/04/13 10:05:48;;;;;;;5.90;1.52;;;10.40;76.50;;;;;;5018178;28;20497;-75
2023/04/13 10:08:13;;;;;;;4.28;1.45;;;10.40;77.30;;;;;;5030213;28;20347;-74
2023/04/13 10:10:39;;;;;;;3.13;1.10;;;10.90;75.60;;;;;;5023460;28;20048;-76
2023/04/13 10:13:17;;;;;;;2.33;1.00;;;11.00;72.70;;;;;;5028189;28;20028;-76
2023/04/13 10:15:57;;;;;;;2.95;1.00;;;11.30;74.10;;;;;;5028294;28;20069;-75
2023/04/13 10:18:46;;;;;;;3.10;1.20;;;11.10;72.60;;;;;;5020754;28;20038;-76
2023/04/13 10:21:12;;;;;;;3.22;0.98;;;11.00;72.20;;;;;;5024076;28;20033;-75
2023/04/13 10:23:38;;;;;;;3.78;1.35;;;10.80;72.40;;;;;;5027870;28;20055;-75
2023/04/13 10:26:05;;;;;;;2.50;1.10;;;10.60;73.60;;;;;;5027783;28;20121;-76
2023/04/13 10:28:45;;;;;;;2.88;1.10;;;10.50;73.70;;;;;;5027818;28;20018;-75
2023/04/13 10:31:11;;;;;;;3.17;0.90;;;10.70;73.20;;;;;;5018094;28;20208;-76
2023/04/13 10:33:49;;;;;;;4.22;1.20;;;11.30;71.20;;;;;;5027927;28;20163;-76
2023/04/13 10:36:15;;;;;;;3.45;1.20;;;11.10;72.10;;;;;;5026168;28;20029;-76
2023/04/13 10:38:45;;;;;;;3.53;1.27;;;11.20;72.50;;;;;;5038959;28;20024;-75
2023/04/13 10:41:23;;;;;;;3.03;1.13;;;11.10;71.90;;;;;;5025519;28;20314;-76
2023/04/13 10:44:00;;;;;;;4.07;1.33;;;11.10;72.70;;;;;;5040841;28;20041;-76
2023/04/13 10:46:25;;;;;;;3.25;1.20;;;10.90;73.30;;;;;;5027497;28;20025;-76
2023/04/13 10:48:58;;;;;;;3.05;1.10;;;10.80;75.20;;;;;;5022969;28;20052;-76
2023/04/13 10:51:26;;;;;;;3.22;1.00;;;10.60;74.40;;;;;;5022050;28;20253;-76
2023/04/13 10:54:01;;;;;;;2.67;1.15;;;10.80;75.30;;;;;;5019351;28;20346;-77
2023/04/13 10:56:27;;;;;;;4.07;1.33;;;11.20;73.80;;;;;;5006535;28;20136;-75
2023/04/13 10:58:52;;;;;;;1.63;1.05;;;11.60;71.50;;;;;;5026261;28;20096;-76
2023/04/13 11:01:18;;;;;;;2.30;1.17;;;11.50;71.90;;;;;;5021489;28;20043;-76
2023/04/13 11:03:44;;;;;;;2.95;1.42;;;11.20;72.90;;;;;;5029893;28;20061;-76
2023/04/13 11:06:10;;;;;;;2.22;1.27;;;11.10;71.60;;;;;;5021264;28;20366;-76
2023/04/13 11:08:38;;;;;;;2.15;1.52;;;11.20;73.00;;;;;;5021427;28;20134;-76
2023/04/13 11:11:04;;;;;;;3.38;1.10;;;11.20;70.80;;;;;;5019001;28;20037;-76
2023/04/13 11:13:31;;;;;;;1.63;1.17;;;11.20;70.00;;;;;;5021728;28;20508;-76
2023/04/13 11:16:01;;;;;;;1.88;1.10;;;11.10;68.50;;;;;;5023995;28;20442;-75
2023/04/13 11:18:27;;;;;;;3.57;1.17;;;11.00;68.60;;;;;;5020114;28;20472;-75
2023/04/13 11:20:53;;;;;;;2.20;1.05;;;10.80;69.10;;;;;;5027930;28;20284;-76
2023/04/13 11:23:22;;;;;;;2.85;1.38;;;10.60;69.20;;;;;;5025133;28;20129;-76
2023/04/13 11:25:56;;;;;;;5.00;1.58;;;10.60;71.70;;;;;;5026871;28;20025;-76
2023/04/13 11:28:23;;;;;;;2.80;1.50;;;10.50;70.20;;;;;;5021746;28;20030;-74
2023/04/13 11:30:55;;;;;;;1.63;1.20;;;10.30;71.70;;;;;;5033024;28;20447;-75
2023/04/13 11:33:25;;;;;;;4.18;1.60;;;10.30;71.60;;;;;;5025317;28;20022;-75
2023/04/13 11:35:51;;;;;;;2.72;1.58;;;10.40;71.90;;;;;;5026225;28;20026;-76
2023/04/13 11:38:17;;;;;;;5.43;1.83;;;10.50;70.90;;;;;;5022564;28;20022;-76
2023/04/13 11:40:44;;;;;;;3.72;2.05;;;10.60;71.30;;;;;;5022584;28;20026;-75
2023/04/13 11:43:10;;;;;;;3.20;1.60;;;10.80;71.90;;;;;;5023298;28;20124;-75
2023/04/13 11:45:37;;;;;;;2.97;1.73;;;11.20;71.70;;;;;;5028968;28;20045;-75
2023/04/13 11:48:05;;;;;;;2.78;1.70;;;11.70;69.10;;;;;;5034684;28;20361;-75
2023/04/13 11:50:31;;;;;;;5.25;1.70;;;12.30;69.30;;;;;;5029339;28;20045;-76
2023/04/13 11:52:58;;;;;;;2.85;1.90;;;12.40;68.10;;;;;;5028890;28;20048;-77
2023/04/13 11:55:25;;;;;;;3.83;1.20;;;13.00;66.90;;;;;;5025513;28;20178;-76
2023/04/13 11:57:52;;;;;;;5.43;2.05;;;12.70;65.30;;;;;;5025248;28;20025;-76
2023/04/13 12:00:22;;;;;;;2.55;1.45;;;13.00;66.90;;;;;;5008569;28;20045;-76
2023/04/13 12:02:50;;;;;;;2.35;1.30;;;13.50;66.10;;;;;;5017986;28;20036;-76
2023/04/13 12:05:37;;;;;;;2.85;1.60;;;13.10;66.60;;;;;;5016356;28;20086;-75
2023/04/13 12:08:02;;;;;;;2.45;1.30;;;13.00;66.70;;;;;;5019433;28;20076;-76
2023/04/13 12:10:30;;;;;;;2.38;1.40;;;12.60;66.70;;;;;;5014907;28;20034;-76
2023/04/13 12:13:08;;;;;;;2.40;1.45;;;12.40;66.90;;;;;;5017732;28;20022;-76
2023/04/13 12:15:36;;;;;;;4.00;1.60;;;12.10;67.60;;;;;;5014414;28;20596;-76
2023/04/13 12:18:03;;;;;;;4.43;1.50;;;12.20;68.80;;;;;;5020230;28;20025;-77
2023/04/13 12:20:42;;;;;;;2.33;1.40;;;12.60;66.90;;;;;;5015683;28;20098;-76
2023/04/13 12:23:24;;;;;;;2.92;1.75;;;12.10;69.30;;;;;;5016640;28;20033;-75
2023/04/13 12:25:55;;;;;;;2.33;1.40;;;11.70;70.20;;;;;;5013149;28;20029;-75
2023/04/13 12:28:21;;;;;;;2.70;1.70;;;11.80;69.80;;;;;;5018136;28;20520;-75
2023/04/13 12:30:46;;;;;;;2.78;1.55;;;11.70;70.30;;;;;;5014629;28;20340;-76
2023/04/13 12:33:12;;;;;;;2.97;1.73;;;11.80;70.90;;;;;;5016531;28;20034;-76
2023/04/13 12:35:38;;;;;;;5.65;1.80;;;12.00;69.60;;;;;;5017053;28;20029;-75
2023/04/13 12:38:05;;;;;;;5.70;1.90;;;12.90;68.90;;;;;;5018907;28;20077;-77
2023/04/13 12:40:31;;;;;;;3.20;1.52;;;13.60;68.40;;;;;;5019400;28;20030;-76
2023/04/13 12:42:56;;;;;;;2.65;1.60;;;13.30;66.00;;;;;;5017799;28;20114;-75
2023/04/13 12:45:22;;;;;;;3.70;1.50;;;13.20;66.80;;;;;;5011621;28;20070;-76